Waha Mermaid — V7UN8 — position and weather

sailwx.info

Track history (hours):
 
Tides and Currents Weather Stations Pressure Air Temp Water Temp Dewpoint Dewpoint Depression Visibility Wind Speed Wind Dir Waves Ship Positions

Waha Mermaid

Last reported at 2018-Jun-29 23:50 UTC. Time now 2018-Jul-20 23:59 UTC.
Position N 00°12' W 050°43'.
Warning: this ship's position is 21 days out of date.

Length 50 m; draft 4.7 m.

Type: Tug. MMSI: 538003983.

Date/timePositionNaut miles runAvg speedWind from/ knotsBaromVisibWave heightAir tempDewpointWater temp
2018-Jun-29 23:50N 00°12' W 050°43'617.8
2018-Jun-29 23:31N 00°11' W 050°49'816.7
2018-Jun-29 23:01N 00°08' W 050°57'815.0
2018-Jun-29 22:29N 00°01' W 051°00'5 9.9
2018-Jun-29 22:00S 00°04' W 050°60'714.9
2018-Jun-29 21:30S 00°11' W 051°02'714.1
2018-Jun-29 21:00S 00°17' W 051°05'713.8
2018-Jun-29 20:30S 00°23' W 051°09'715.0
2018-Jun-29 20:00S 00°26' W 051°16'19614.6
2018-Jun-29 06:37S 02°07' W 054°03'2613.7
2018-Jun-29 04:44S 02°25' W 054°22'417.7
2018-Jun-29 04:30S 02°26' W 054°26'917.1
2018-Jun-29 03:59S 02°28' W 054°35'714.9
2018-Jun-29 03:29S 02°24' W 054°41'613.0
2018-Jun-29 03:00S 02°19' W 054°45'917.8
2018-Jun-29 02:30S 02°11' W 054°48'917.2
2018-Jun-29 02:00S 02°11' W 054°57'713.8
2018-Jun-29 01:30S 02°14' W 055°03'816.0
2018-Jun-29 01:01S 02°10' W 055°10'  
2018-Jun-26 09:31S 01°55' W 055°33'2 8.9
2018-Jun-26 09:14S 01°56' W 055°31'2 9.7
2018-Jun-26 09:00S 01°58' W 055°29'510.4
2018-Jun-26 08:30S 02°01' W 055°25'611.5
2018-Jun-26 08:00S 02°05' W 055°21'510.7
2018-Jun-26 07:30S 02°08' W 055°16'611.9
2018-Jun-26 07:00S 02°09' W 055°11'611.7
2018-Jun-26 06:30S 02°10' W 055°05'7 9.8
2018-Jun-26 05:47S 02°11' W 054°58'310.5
2018-Jun-26 05:30S 02°10' W 054°55'510.2
2018-Jun-26 05:00S 02°10' W 054°50'510.4
2018-Jun-26 04:31S 02°14' W 054°47'611.3
2018-Jun-26 03:59S 02°19' W 054°45'510.4
2018-Jun-26 03:30S 02°24' W 054°43'611.5
2018-Jun-26 03:00S 02°27' W 054°38'510.6
2018-Jun-26 02:30S 02°28' W 054°33'611.1
2018-Jun-26 02:00S 02°26' W 054°27'611.3
2018-Jun-26 01:30S 02°25' W 054°22'611.1
2018-Jun-26 01:00S 02°24' W 054°16'611.2
2018-Jun-26 00:30S 02°23' W 054°11'510.8
2018-Jun-26 00:00S 02°22' W 054°06'510.1
2018-Jun-25 23:28S 02°17' W 054°03'611.1
2018-Jun-25 22:55S 02°11' W 054°03'177 9.8
2018-Jun-25 04:49S 00°35' W 051°34'413.6
2018-Jun-25 04:30S 00°32' W 051°31'1013.2
2018-Jun-25 03:46S 00°25' W 051°25'513.5
2018-Jun-25 03:25S 00°21' W 051°22'613.6
2018-Jun-25 03:00S 00°16' W 051°20'612.7
2018-Jun-25 02:30S 00°11' W 051°16'4 8.8
2018-Jun-25 02:00S 00°08' W 051°13'611.9
2018-Jun-25 01:30S 00°05' W 051°07'2 3.0
2018-Jun-25 00:55S 00°04' W 051°06'0 0.0
2018-Jun-25 00:19S 00°04' W 051°06'0 0.0
2018-Jun-24 23:49S 00°04' W 051°06'0 0.0
2018-Jun-24 23:25S 00°04' W 051°06'0 0.0
2018-Jun-24 22:55S 00°04' W 051°06'0 0.0
2018-Jun-24 22:25S 00°04' W 051°06'0 0.0
2018-Jun-24 21:55S 00°04' W 051°06'0 0.0
2018-Jun-24 21:25S 00°04' W 051°06'0 0.0
2018-Jun-24 20:58S 00°04' W 051°06'0 0.0
2018-Jun-24 20:28S 00°04' W 051°06'0 0.0
2018-Jun-24 19:58S 00°04' W 051°06'0 0.0
2018-Jun-24 19:25S 00°04' W 051°06'0 0.2
2018-Jun-24 18:55S 00°04' W 051°06'0 0.1
2018-Jun-24 18:25S 00°04' W 051°06'0 0.0
2018-Jun-24 17:58S 00°04' W 051°06'0 0.2
2018-Jun-24 17:28S 00°04' W 051°06'0 0.4
2018-Jun-24 16:58S 00°04' W 051°06'0 0.1
2018-Jun-24 16:28S 00°04' W 051°06'0 0.0
2018-Jun-24 15:58S 00°04' W 051°06'1 1.2
2018-Jun-24 15:30S 00°04' W 051°06'4 8.1
2018-Jun-24 15:00S 00°02' W 051°03'713.4
2018-Jun-24 14:30N 00°04' W 050°59'612.9
2018-Jun-24 14:00N 00°09' W 050°55'914.6
2018-Jun-24 13:24N 00°11' W 050°47'  
Track history (hours):
 
Tides and Currents Weather Stations Pressure Air Temp Water Temp Dewpoint Dewpoint Depression Visibility Wind Speed Wind Dir Waves Ship Positions

Waha Mermaid

Last reported at 2018-Jun-29 23:50 UTC. Time now 2018-Jul-20 23:59 UTC.
Position N 00°12' W 050°43'.
Warning: this ship's position is 21 days out of date.

Length 50 m; draft 4.7 m.

Type: Tug. MMSI: 538003983.

Date/timePositionNaut miles runAvg speedWind from/ knotsBaromVisibWave heightAir tempDewpointWater temp
2018-Jun-29 23:50N 00°12' W 050°43'617.8
2018-Jun-29 23:31N 00°11' W 050°49'816.7
2018-Jun-29 23:01N 00°08' W 050°57'815.0
2018-Jun-29 22:29N 00°01' W 051°00'5 9.9
2018-Jun-29 22:00S 00°04' W 050°60'714.9
2018-Jun-29 21:30S 00°11' W 051°02'714.1
2018-Jun-29 21:00S 00°17' W 051°05'713.8
2018-Jun-29 20:30S 00°23' W 051°09'715.0
2018-Jun-29 20:00S 00°26' W 051°16'19614.6
2018-Jun-29 06:37S 02°07' W 054°03'2613.7
2018-Jun-29 04:44S 02°25' W 054°22'417.7
2018-Jun-29 04:30S 02°26' W 054°26'917.1
2018-Jun-29 03:59S 02°28' W 054°35'714.9
2018-Jun-29 03:29S 02°24' W 054°41'613.0
2018-Jun-29 03:00S 02°19' W 054°45'917.8
2018-Jun-29 02:30S 02°11' W 054°48'917.2
2018-Jun-29 02:00S 02°11' W 054°57'713.8
2018-Jun-29 01:30S 02°14' W 055°03'816.0
2018-Jun-29 01:01S 02°10' W 055°10'  
2018-Jun-26 09:31S 01°55' W 055°33'2 8.9
2018-Jun-26 09:14S 01°56' W 055°31'2 9.7
2018-Jun-26 09:00S 01°58' W 055°29'510.4
2018-Jun-26 08:30S 02°01' W 055°25'611.5
2018-Jun-26 08:00S 02°05' W 055°21'510.7
2018-Jun-26 07:30S 02°08' W 055°16'611.9
2018-Jun-26 07:00S 02°09' W 055°11'611.7
2018-Jun-26 06:30S 02°10' W 055°05'7 9.8
2018-Jun-26 05:47S 02°11' W 054°58'310.5
2018-Jun-26 05:30S 02°10' W 054°55'510.2
2018-Jun-26 05:00S 02°10' W 054°50'510.4
2018-Jun-26 04:31S 02°14' W 054°47'611.3
2018-Jun-26 03:59S 02°19' W 054°45'510.4
2018-Jun-26 03:30S 02°24' W 054°43'611.5
2018-Jun-26 03:00S 02°27' W 054°38'510.6
2018-Jun-26 02:30S 02°28' W 054°33'611.1
2018-Jun-26 02:00S 02°26' W 054°27'611.3
2018-Jun-26 01:30S 02°25' W 054°22'611.1
2018-Jun-26 01:00S 02°24' W 054°16'611.2
2018-Jun-26 00:30S 02°23' W 054°11'510.8
2018-Jun-26 00:00S 02°22' W 054°06'510.1
2018-Jun-25 23:28S 02°17' W 054°03'611.1
2018-Jun-25 22:55S 02°11' W 054°03'177 9.8
2018-Jun-25 04:49S 00°35' W 051°34'413.6
2018-Jun-25 04:30S 00°32' W 051°31'1013.2
2018-Jun-25 03:46S 00°25' W 051°25'513.5
2018-Jun-25 03:25S 00°21' W 051°22'613.6
2018-Jun-25 03:00S 00°16' W 051°20'612.7
2018-Jun-25 02:30S 00°11' W 051°16'4 8.8
2018-Jun-25 02:00S 00°08' W 051°13'611.9
2018-Jun-25 01:30S 00°05' W 051°07'2 3.0
2018-Jun-25 00:55S 00°04' W 051°06'0 0.0
2018-Jun-25 00:19S 00°04' W 051°06'0 0.0
2018-Jun-24 23:49S 00°04' W 051°06'0 0.0
2018-Jun-24 23:25S 00°04' W 051°06'0 0.0
2018-Jun-24 22:55S 00°04' W 051°06'0 0.0
2018-Jun-24 22:25S 00°04' W 051°06'0 0.0
2018-Jun-24 21:55S 00°04' W 051°06'0 0.0
2018-Jun-24 21:25S 00°04' W 051°06'0 0.0
2018-Jun-24 20:58S 00°04' W 051°06'0 0.0
2018-Jun-24 20:28S 00°04' W 051°06'0 0.0
2018-Jun-24 19:58S 00°04' W 051°06'0 0.0
2018-Jun-24 19:25S 00°04' W 051°06'0 0.2
2018-Jun-24 18:55S 00°04' W 051°06'0 0.1
2018-Jun-24 18:25S 00°04' W 051°06'0 0.0
2018-Jun-24 17:58S 00°04' W 051°06'0 0.2
2018-Jun-24 17:28S 00°04' W 051°06'0 0.4
2018-Jun-24 16:58S 00°04' W 051°06'0 0.1
2018-Jun-24 16:28S 00°04' W 051°06'0 0.0
2018-Jun-24 15:58S 00°04' W 051°06'1 1.2
2018-Jun-24 15:30S 00°04' W 051°06'4 8.1
2018-Jun-24 15:00S 00°02' W 051°03'713.4
2018-Jun-24 14:30N 00°04' W 050°59'612.9
2018-Jun-24 14:00N 00°09' W 050°55'914.6
2018-Jun-24 13:24N 00°11' W 050°47'  

Dump ship's entire track history